createdAt,value
2023-02-24T00:02:05.719Z,50.24
2023-02-24T00:04:39.492Z,50.09
2023-02-24T00:07:10.886Z,50.15
2023-02-24T00:09:40.868Z,49.52
2023-02-24T00:12:14.158Z,50.34
2023-02-24T00:14:44.738Z,50.49
2023-02-24T00:17:15.924Z,51.04
2023-02-24T00:19:43.412Z,50.30
2023-02-24T00:22:10.828Z,50.31
2023-02-24T00:24:37.957Z,50.27
2023-02-24T00:27:12.972Z,50.27
2023-02-24T00:29:41.781Z,50.87
2023-02-24T00:32:12.829Z,51.68
2023-02-24T00:34:40.267Z,51.16
2023-02-24T00:37:07.266Z,50.65
2023-02-24T00:39:35.726Z,49.61
2023-02-24T00:42:05.596Z,50.09
2023-02-24T00:44:37.159Z,49.58
2023-02-24T00:47:06.964Z,49.87
2023-02-24T00:49:42.151Z,49.91
2023-02-24T00:52:17.850Z,49.54
2023-02-24T00:54:47.118Z,49.44
2023-02-24T00:57:14.471Z,49.28
2023-02-24T00:59:47.606Z,49.60
2023-02-24T01:02:15.843Z,48.93
2023-02-24T01:04:44.748Z,48.82
2023-02-24T01:07:13.602Z,49.06
2023-02-24T01:09:41.760Z,49.69
2023-02-24T01:12:29.568Z,49.78
2023-02-24T01:14:58.375Z,49.35
2023-02-24T01:17:25.613Z,49.40
2023-02-24T01:19:52.877Z,49.38
2023-02-24T01:22:21.014Z,49.22
2023-02-24T01:24:48.428Z,50.98
2023-02-24T01:27:18.804Z,50.16
2023-02-24T01:29:48.589Z,49.54
2023-02-24T01:32:21.232Z,49.11
2023-02-24T01:34:52.133Z,49.67
2023-02-24T01:37:19.708Z,49.34
2023-02-24T01:39:47.668Z,49.33
2023-02-24T01:42:19.556Z,49.38
2023-02-24T01:44:46.875Z,49.05
2023-02-24T01:47:16.223Z,50.31
2023-02-24T01:49:47.751Z,49.68
2023-02-24T01:52:23.935Z,49.98
2023-02-24T01:54:50.745Z,49.71
2023-02-24T01:57:21.172Z,49.51
2023-02-24T01:59:54.185Z,49.42
2023-02-24T02:02:23.533Z,49.46
2023-02-24T02:04:57.333Z,48.83
2023-02-24T02:07:28.140Z,49.45
2023-02-24T02:09:57.253Z,48.51
2023-02-24T02:12:25.233Z,48.39
2023-02-24T02:14:54.868Z,48.63
2023-02-24T02:17:45.920Z,48.61
2023-02-24T02:20:53.774Z,48.69
2023-02-24T02:23:54.113Z,48.87
2023-02-24T02:26:43.543Z,48.77
2023-02-24T02:29:44.081Z,49.27
2023-02-24T02:32:23.958Z,48.79
2023-02-24T02:35:19.241Z,49.46
2023-02-24T02:38:05.421Z,48.43
2023-02-24T02:40:42.393Z,49.11
2023-02-24T02:43:19.545Z,48.94
2023-02-24T02:45:57.558Z,48.85
2023-02-24T02:48:34.555Z,48.96
2023-02-24T02:51:07.830Z,48.66
2023-02-24T02:53:49.429Z,49.61
2023-02-24T02:56:37.994Z,49.18
2023-02-24T02:59:06.652Z,49.53
2023-02-24T03:01:37.779Z,49.50
2023-02-24T03:04:09.120Z,49.46
2023-02-24T03:07:01.388Z,49.35
2023-02-24T03:09:40.731Z,49.22
2023-02-24T03:12:14.928Z,49.14
2023-02-24T03:15:00.262Z,49.27
2023-02-24T03:17:32.783Z,49.10
2023-02-24T03:20:17.559Z,49.22
2023-02-24T03:22:57.550Z,48.98
2023-02-24T03:25:38.262Z,48.54
2023-02-24T03:28:34.092Z,48.83
2023-02-24T03:31:45.900Z,50.18
2023-02-24T03:34:21.151Z,49.36
2023-02-24T03:36:48.325Z,48.87
2023-02-24T03:39:16.708Z,49.08
2023-02-24T03:42:18.229Z,48.27
2023-02-24T03:44:45.694Z,48.63
2023-02-24T03:47:17.534Z,48.60
2023-02-24T03:49:44.424Z,48.81
2023-02-24T03:52:55.685Z,48.44
2023-02-24T03:55:59.518Z,47.78
2023-02-24T03:58:43.980Z,48.18
2023-02-24T04:01:42.131Z,48.46
2023-02-24T04:04:37.810Z,48.48
2023-02-24T04:07:45.446Z,48.47
2023-02-24T04:10:27.252Z,48.31
2023-02-24T04:13:04.121Z,48.12
2023-02-24T04:15:58.914Z,48.37
2023-02-24T04:18:31.056Z,48.21
2023-02-24T04:21:01.132Z,48.47
2023-02-24T04:23:33.622Z,48.24
2023-02-24T04:26:01.767Z,48.53
2023-02-24T04:28:30.621Z,48.42
2023-02-24T04:31:06.189Z,48.37
2023-02-24T04:33:35.617Z,49.10
2023-02-24T04:36:02.700Z,48.14
2023-02-24T04:38:33.850Z,48.58
2023-02-24T04:41:01.145Z,48.35
2023-02-24T04:43:29.463Z,48.33
2023-02-24T04:45:56.313Z,48.14
2023-02-24T04:48:23.097Z,48.73
2023-02-24T04:50:55.304Z,47.84
2023-02-24T04:53:27.205Z,47.67
2023-02-24T04:55:56.285Z,47.63
2023-02-24T04:58:28.785Z,48.00
2023-02-24T05:00:56.507Z,47.73
2023-02-24T05:03:28.279Z,47.80
2023-02-24T05:05:58.266Z,48.30
2023-02-24T05:08:27.298Z,48.29
2023-02-24T05:10:56.710Z,47.90
2023-02-24T05:13:27.440Z,48.24
2023-02-24T05:15:57.067Z,47.93
2023-02-24T05:18:24.634Z,47.46
2023-02-24T05:21:13.119Z,47.60
2023-02-24T05:23:45.401Z,47.18
2023-02-24T05:26:16.422Z,46.99
2023-02-24T05:28:46.968Z,47.08
2023-02-24T05:31:24.015Z,47.89
2023-02-24T05:33:57.928Z,47.83
2023-02-24T05:36:27.253Z,47.57
2023-02-24T05:38:58.177Z,47.94
2023-02-24T05:41:32.697Z,47.78
2023-02-24T05:44:02.502Z,48.11
2023-02-24T05:46:33.143Z,48.38
2023-02-24T05:49:03.182Z,47.83
2023-02-24T05:51:35.270Z,48.66
2023-02-24T05:54:09.811Z,47.76
2023-02-24T05:56:39.604Z,47.94
2023-02-24T05:59:11.307Z,49.19
2023-02-24T06:01:41.795Z,49.92
2023-02-24T06:04:09.831Z,50.08
2023-02-24T06:06:39.575Z,49.70
2023-02-24T06:09:12.761Z,50.22
2023-02-24T06:11:42.090Z,49.09
2023-02-24T06:14:10.384Z,49.78
2023-02-24T06:16:43.484Z,49.82
2023-02-24T06:19:12.183Z,49.65
2023-02-24T06:21:41.514Z,49.75
2023-02-24T06:24:14.751Z,49.99
2023-02-24T06:26:45.793Z,49.36
2023-02-24T06:29:14.958Z,49.48
2023-02-24T06:31:43.610Z,49.54
2023-02-24T06:34:13.139Z,49.28
2023-02-24T06:36:40.344Z,49.74
2023-02-24T06:39:13.677Z,49.41
2023-02-24T06:41:42.594Z,49.00
2023-02-24T06:44:09.596Z,49.00
2023-02-24T06:46:36.809Z,48.95
2023-02-24T06:49:04.152Z,49.02
2023-02-24T06:51:31.279Z,49.15
2023-02-24T06:53:59.547Z,49.50
2023-02-24T06:56:27.560Z,49.73
2023-02-24T06:58:56.401Z,49.22
2023-02-24T07:01:26.708Z,49.46
2023-02-24T07:04:02.301Z,49.06
2023-02-24T07:06:34.726Z,49.68
2023-02-24T07:09:10.833Z,49.11
2023-02-24T07:11:41.546Z,49.40
2023-02-24T07:14:11.269Z,48.73
2023-02-24T07:16:41.625Z,49.15
2023-02-24T07:19:13.803Z,48.95
2023-02-24T07:21:50.330Z,48.55
2023-02-24T07:24:32.978Z,49.10
2023-02-24T07:27:02.541Z,48.80
2023-02-24T07:29:32.443Z,48.66
2023-02-24T07:32:03.413Z,48.85
2023-02-24T07:34:31.440Z,48.41
2023-02-24T07:36:58.216Z,47.94
2023-02-24T07:39:25.864Z,48.44
2023-02-24T07:41:57.212Z,47.90
2023-02-24T07:44:24.552Z,48.22
2023-02-24T07:46:51.810Z,48.07
2023-02-24T07:49:26.053Z,48.55
2023-02-24T07:51:57.770Z,47.72
2023-02-24T07:54:29.927Z,47.99
2023-02-24T07:56:59.382Z,47.91
2023-02-24T07:59:32.486Z,47.64
2023-02-24T08:02:00.696Z,48.00
2023-02-24T08:04:32.975Z,48.05
2023-02-24T08:07:03.241Z,48.24
2023-02-24T08:09:45.227Z,47.89
2023-02-24T08:12:18.194Z,48.57
2023-02-24T08:14:51.048Z,48.69
2023-02-24T08:17:20.236Z,48.30
2023-02-24T08:19:49.631Z,48.68
2023-02-24T08:22:21.039Z,48.74
2023-02-24T08:24:54.541Z,48.71
2023-02-24T08:27:25.150Z,48.55
2023-02-24T08:30:04.027Z,48.20
2023-02-24T08:32:43.770Z,48.24
2023-02-24T08:35:15.621Z,47.19
2023-02-24T08:37:47.322Z,47.18
2023-02-24T08:40:34.591Z,47.53
2023-02-24T08:43:42.045Z,47.53
2023-02-24T08:46:18.411Z,46.56
2023-02-24T08:48:55.630Z,46.46
2023-02-24T08:51:35.505Z,46.75
2023-02-24T08:54:11.169Z,46.31
2023-02-24T08:56:43.553Z,45.60
2023-02-24T08:59:32.506Z,45.62
2023-02-24T09:02:35.149Z,45.47
2023-02-24T09:05:14.218Z,45.13
2023-02-24T09:07:42.130Z,44.51
2023-02-24T09:10:17.963Z,44.69
2023-02-24T09:12:45.127Z,44.67
2023-02-24T09:15:15.492Z,43.94
2023-02-24T09:17:44.751Z,44.79
2023-02-24T09:20:35.790Z,44.70
2023-02-24T09:23:04.014Z,44.73
2023-02-24T09:25:49.701Z,44.26
2023-02-24T09:28:19.001Z,44.63
2023-02-24T09:30:54.520Z,44.97
2023-02-24T09:33:39.183Z,44.92
2023-02-24T09:36:20.333Z,44.15
2023-02-24T09:39:02.252Z,44.58
2023-02-24T09:42:04.007Z,43.78
2023-02-24T09:44:40.390Z,43.73
2023-02-24T09:47:31.237Z,43.54
2023-02-24T09:50:14.157Z,42.91
2023-02-24T09:52:41.654Z,44.11
2023-02-24T09:55:26.350Z,44.86
2023-02-24T09:58:41.847Z,43.33
2023-02-24T10:01:30.848Z,43.21
2023-02-24T10:04:18.667Z,43.13
2023-02-24T10:06:55.354Z,42.63
2023-02-24T10:09:39.456Z,42.07
2023-02-24T10:12:17.245Z,42.96
2023-02-24T10:15:19.719Z,42.51
2023-02-24T10:17:55.427Z,42.39
2023-02-24T10:20:39.867Z,42.73
2023-02-24T10:23:33.227Z,42.26
2023-02-24T10:26:09.473Z,42.43
2023-02-24T10:28:46.079Z,41.53
2023-02-24T10:31:26.750Z,42.41
2023-02-24T10:34:08.786Z,42.84
2023-02-24T10:36:38.082Z,42.15
2023-02-24T10:39:21.294Z,41.85
2023-02-24T10:41:57.393Z,42.15
2023-02-24T10:44:36.225Z,41.62
2023-02-24T10:47:11.793Z,41.21
2023-02-24T10:49:58.398Z,39.80
2023-02-24T10:53:11.200Z,39.54
2023-02-24T10:55:47.611Z,39.35
2023-02-24T10:58:38.000Z,39.12
2023-02-24T11:01:43.805Z,39.02
2023-02-24T11:04:33.611Z,38.08
2023-02-24T11:07:13.276Z,37.86
2023-02-24T11:09:45.604Z,37.62
2023-02-24T11:12:38.917Z,37.05
2023-02-24T11:15:33.825Z,37.31
2023-02-24T11:18:01.184Z,37.01
2023-02-24T11:20:50.043Z,36.95
2023-02-24T11:23:40.376Z,36.90
2023-02-24T11:26:17.028Z,36.67
2023-02-24T11:29:03.945Z,36.33
2023-02-24T11:31:39.010Z,36.40
2023-02-24T11:34:25.148Z,36.48
2023-02-24T11:37:22.762Z,37.00
2023-02-24T11:39:57.091Z,37.25
2023-02-24T11:42:31.686Z,36.13
2023-02-24T11:45:27.511Z,36.39
2023-02-24T11:48:06.759Z,36.48
2023-02-24T11:50:43.962Z,35.79
2023-02-24T11:53:52.250Z,35.15
2023-02-24T11:56:33.337Z,35.60
2023-02-24T11:59:19.220Z,35.09
2023-02-24T12:01:55.261Z,35.01
2023-02-24T12:04:49.207Z,34.55
2023-02-24T12:07:27.800Z,34.57
2023-02-24T12:10:14.474Z,33.55
2023-02-24T12:12:57.988Z,33.38
2023-02-24T12:15:56.732Z,33.67
2023-02-24T12:18:37.337Z,33.91
2023-02-24T12:21:08.255Z,34.02
2023-02-24T12:23:39.370Z,34.29
2023-02-24T12:26:15.542Z,34.00
2023-02-24T12:28:58.585Z,34.07
2023-02-24T12:31:32.287Z,34.22
2023-02-24T12:34:15.549Z,33.89
2023-02-24T12:37:21.493Z,33.00
2023-02-24T12:40:00.189Z,31.40
2023-02-24T12:42:45.696Z,32.68
2023-02-24T12:45:33.985Z,33.37
2023-02-24T12:48:03.793Z,34.44
2023-02-24T12:50:42.368Z,34.52
2023-02-24T12:53:20.683Z,34.77
2023-02-24T12:56:13.572Z,34.56
2023-02-24T12:58:44.928Z,35.53
2023-02-24T13:01:24.859Z,35.55
2023-02-24T13:04:10.506Z,35.63
2023-02-24T13:06:43.299Z,36.20
2023-02-24T13:09:29.450Z,34.93
2023-02-24T13:12:08.729Z,33.50
2023-02-24T13:14:38.354Z,32.59
2023-02-24T13:17:11.163Z,31.46
2023-02-24T13:19:40.122Z,31.09
2023-02-24T13:22:12.581Z,30.15
2023-02-24T13:25:01.354Z,30.34
2023-02-24T13:27:31.557Z,31.06
2023-02-24T13:30:01.123Z,33.88
2023-02-24T13:32:37.777Z,34.73
2023-02-24T13:35:16.862Z,35.78
2023-02-24T13:37:48.435Z,36.21
2023-02-24T13:40:18.054Z,36.22
2023-02-24T13:43:05.457Z,37.47
2023-02-24T13:45:39.871Z,38.88
2023-02-24T13:48:45.344Z,38.72
2023-02-24T13:51:24.387Z,40.31
2023-02-24T13:54:09.514Z,40.59
2023-02-24T13:56:55.685Z,41.08
2023-02-24T13:59:46.462Z,40.62
2023-02-24T14:02:15.506Z,40.92
2023-02-24T14:04:51.412Z,41.66
2023-02-24T14:07:25.611Z,42.05
2023-02-24T14:09:57.753Z,42.51
2023-02-24T14:12:30.546Z,42.58
2023-02-24T14:14:57.976Z,42.51
2023-02-24T14:17:29.419Z,42.35
2023-02-24T14:20:07.543Z,43.91
2023-02-24T14:22:35.258Z,43.45
2023-02-24T14:25:03.483Z,44.03
2023-02-24T14:27:31.296Z,43.86
2023-02-24T14:29:58.299Z,43.36
2023-02-24T14:32:28.044Z,44.24
2023-02-24T14:34:55.544Z,43.47
2023-02-24T14:37:26.021Z,44.39
2023-02-24T14:39:55.929Z,44.25
2023-02-24T14:42:22.965Z,44.13
2023-02-24T14:44:52.481Z,44.36
2023-02-24T14:47:22.258Z,44.15
2023-02-24T14:49:59.720Z,43.88
2023-02-24T14:52:48.459Z,43.83
2023-02-24T14:55:42.564Z,43.64
2023-02-24T14:58:27.475Z,43.21
2023-02-24T15:01:07.030Z,44.36
2023-02-24T15:03:45.549Z,43.93
2023-02-24T15:06:20.968Z,44.00
2023-02-24T15:09:00.454Z,43.95
2023-02-24T15:11:30.670Z,43.25
2023-02-24T15:14:07.932Z,44.55
2023-02-24T15:16:42.862Z,45.40
2023-02-24T15:19:32.428Z,45.41
2023-02-24T15:21:59.740Z,45.28
2023-02-24T15:24:34.711Z,44.78
2023-02-24T15:27:13.271Z,45.03
2023-02-24T15:29:41.031Z,44.42
2023-02-24T15:32:17.686Z,45.05
2023-02-24T15:34:47.984Z,44.19
2023-02-24T15:37:24.108Z,44.47
2023-02-24T15:39:56.713Z,44.83
2023-02-24T15:42:28.528Z,44.51
2023-02-24T15:45:17.177Z,43.77
2023-02-24T15:47:45.752Z,44.42
2023-02-24T15:50:13.314Z,44.02
2023-02-24T15:52:41.795Z,44.31
2023-02-24T15:55:14.527Z,44.21
2023-02-24T15:57:41.718Z,44.67
2023-02-24T16:00:14.256Z,45.45
2023-02-24T16:02:41.993Z,45.40
2023-02-24T16:05:15.912Z,45.19
2023-02-24T16:07:46.766Z,45.45
2023-02-24T16:10:26.897Z,45.07
2023-02-24T16:12:56.466Z,45.19
2023-02-24T16:15:30.567Z,44.56
2023-02-24T16:17:58.241Z,45.20
2023-02-24T16:20:31.395Z,45.89
2023-02-24T16:23:01.810Z,46.48
2023-02-24T16:25:37.374Z,45.92
2023-02-24T16:28:05.341Z,45.50
2023-02-24T16:30:35.519Z,46.58
2023-02-24T16:33:04.003Z,46.00
2023-02-24T16:35:31.869Z,46.28
2023-02-24T16:38:00.418Z,46.18
2023-02-24T16:40:33.743Z,46.12
2023-02-24T16:43:04.971Z,45.47
2023-02-24T16:45:35.711Z,45.10
2023-02-24T16:48:19.008Z,45.84
2023-02-24T16:50:45.962Z,45.27
2023-02-24T16:53:20.047Z,46.41
2023-02-24T16:55:47.456Z,45.83
2023-02-24T16:58:15.384Z,45.79
2023-02-24T17:00:44.600Z,46.46
2023-02-24T17:03:31.205Z,46.49
2023-02-24T17:05:58.080Z,46.05
2023-02-24T17:08:24.958Z,46.03
2023-02-24T17:10:52.430Z,47.99
2023-02-24T17:13:21.141Z,45.88
2023-02-24T17:15:49.965Z,45.17
2023-02-24T17:18:16.582Z,44.52
2023-02-24T17:20:43.665Z,45.10
2023-02-24T17:23:11.305Z,44.42
2023-02-24T17:25:38.226Z,44.45
2023-02-24T17:28:06.443Z,44.52
2023-02-24T17:30:35.933Z,44.36
2023-02-24T17:33:03.004Z,44.98
2023-02-24T17:35:30.210Z,45.06
2023-02-24T17:37:57.258Z,44.03
2023-02-24T17:40:24.171Z,43.66
2023-02-24T17:42:51.440Z,43.85
2023-02-24T17:45:18.291Z,43.97
2023-02-24T17:47:45.124Z,44.03
2023-02-24T17:50:13.127Z,43.21
2023-02-24T17:52:40.506Z,43.61
2023-02-24T17:55:08.078Z,43.69
2023-02-24T17:57:39.842Z,43.92
2023-02-24T18:00:08.351Z,44.11
2023-02-24T18:02:43.959Z,44.31
2023-02-24T18:05:10.855Z,44.03
2023-02-24T18:07:38.127Z,45.06
2023-02-24T18:10:05.515Z,44.54
2023-02-24T18:12:32.259Z,44.38
2023-02-24T18:15:08.345Z,43.25
2023-02-24T18:17:37.800Z,44.69
2023-02-24T18:20:07.220Z,43.77
2023-02-24T18:22:35.674Z,44.60
2023-02-24T18:25:02.734Z,44.21
2023-02-24T18:27:48.301Z,44.49
2023-02-24T18:30:17.807Z,45.23
2023-02-24T18:32:45.112Z,44.40
2023-02-24T18:35:13.263Z,45.11
2023-02-24T18:37:39.998Z,44.80
2023-02-24T18:40:07.291Z,44.24
2023-02-24T18:42:34.171Z,44.55
2023-02-24T18:45:00.917Z,44.35
2023-02-24T18:47:27.845Z,44.75
2023-02-24T18:49:54.646Z,45.02
2023-02-24T18:52:21.399Z,45.72
2023-02-24T18:54:49.264Z,44.70
2023-02-24T18:57:16.059Z,45.21
2023-02-24T18:59:42.882Z,45.29
2023-02-24T19:02:10.732Z,45.37
2023-02-24T19:04:37.490Z,45.31
2023-02-24T19:07:04.430Z,45.72
2023-02-24T19:09:31.149Z,45.75
2023-02-24T19:11:58.052Z,47.28
2023-02-24T19:14:25.807Z,46.73
2023-02-24T19:16:52.704Z,46.41
2023-02-24T19:19:19.637Z,45.85
2023-02-24T19:21:48.255Z,45.79
2023-02-24T19:24:15.928Z,46.05
2023-02-24T19:26:44.437Z,45.96
2023-02-24T19:29:11.673Z,46.15
2023-02-24T19:31:39.261Z,46.13
2023-02-24T19:34:10.333Z,45.61
2023-02-24T19:36:38.077Z,46.08
2023-02-24T19:39:05.936Z,45.86
2023-02-24T19:41:32.843Z,45.63
2023-02-24T19:43:59.764Z,45.72
2023-02-24T19:46:27.035Z,45.58
2023-02-24T19:48:56.325Z,45.61
2023-02-24T19:51:24.225Z,45.93
2023-02-24T19:53:56.170Z,45.48
2023-02-24T19:56:25.179Z,45.73
2023-02-24T19:58:59.878Z,45.35
2023-02-24T20:01:28.545Z,45.31
2023-02-24T20:03:59.711Z,45.17
2023-02-24T20:06:44.638Z,45.47
2023-02-24T20:09:15.515Z,44.94
2023-02-24T20:11:44.508Z,45.44
2023-02-24T20:14:12.296Z,46.50
2023-02-24T20:16:41.297Z,46.11
2023-02-24T20:19:09.413Z,46.01
2023-02-24T20:21:38.531Z,46.09
2023-02-24T20:24:09.202Z,46.64
2023-02-24T20:26:38.603Z,45.89
2023-02-24T20:29:05.353Z,45.25
2023-02-24T20:31:32.367Z,45.46
2023-02-24T20:33:59.271Z,45.52
2023-02-24T20:36:29.067Z,45.82
2023-02-24T20:38:58.706Z,45.96
2023-02-24T20:41:26.664Z,45.42
2023-02-24T20:43:53.565Z,46.30
2023-02-24T20:46:27.056Z,46.63
2023-02-24T20:49:05.265Z,46.32
2023-02-24T20:51:33.863Z,45.85
2023-02-24T20:54:00.519Z,46.37
2023-02-24T20:56:30.001Z,46.13
2023-02-24T20:59:10.797Z,46.05
2023-02-24T21:01:39.304Z,46.00
2023-02-24T21:04:08.709Z,45.97
2023-02-24T21:06:36.874Z,46.36
2023-02-24T21:09:03.811Z,46.56
2023-02-24T21:11:30.911Z,46.88
2023-02-24T21:13:58.442Z,48.35
2023-02-24T21:16:26.904Z,47.91
2023-02-24T21:18:54.175Z,47.02
2023-02-24T21:21:21.071Z,48.13
2023-02-24T21:23:50.843Z,47.92
2023-02-24T21:26:18.510Z,47.84
2023-02-24T21:28:46.445Z,46.85
2023-02-24T21:31:18.244Z,46.79
2023-02-24T21:33:45.033Z,47.06
2023-02-24T21:36:14.270Z,46.66
2023-02-24T21:38:41.452Z,47.06
2023-02-24T21:41:13.483Z,47.36
2023-02-24T21:43:41.086Z,47.58
2023-02-24T21:46:11.666Z,47.53
2023-02-24T21:48:40.632Z,47.10
2023-02-24T21:51:09.556Z,47.08
2023-02-24T21:53:43.510Z,48.55
2023-02-24T21:56:17.004Z,48.09
2023-02-24T21:58:48.764Z,47.73
2023-02-24T22:01:19.121Z,47.61
2023-02-24T22:03:46.226Z,48.82
2023-02-24T22:06:14.884Z,52.46
2023-02-24T22:08:45.595Z,50.06
2023-02-24T22:11:17.911Z,49.06
2023-02-24T22:13:46.536Z,49.88
2023-02-24T22:16:18.310Z,48.60
2023-02-24T22:18:45.447Z,49.02
2023-02-24T22:21:17.240Z,49.94
2023-02-24T22:23:46.110Z,48.55
2023-02-24T22:26:13.821Z,48.63
2023-02-24T22:28:42.288Z,47.93
2023-02-24T22:31:11.466Z,48.23
2023-02-24T22:33:43.292Z,48.79
2023-02-24T22:36:13.012Z,48.81
2023-02-24T22:38:40.984Z,48.53
2023-02-24T22:41:12.572Z,48.03
2023-02-24T22:43:39.411Z,48.54
2023-02-24T22:46:08.387Z,48.51
2023-02-24T22:48:36.934Z,51.02
2023-02-24T22:51:07.026Z,50.75
2023-02-24T22:53:36.158Z,49.85
2023-02-24T22:56:03.432Z,51.12
2023-02-24T22:58:30.605Z,51.79
2023-02-24T23:00:58.485Z,50.15
2023-02-24T23:03:30.691Z,50.02
2023-02-24T23:06:00.171Z,49.94
2023-02-24T23:08:29.044Z,49.55
2023-02-24T23:11:03.331Z,49.42
2023-02-24T23:13:30.306Z,50.41
2023-02-24T23:16:03.969Z,53.20
2023-02-24T23:18:32.723Z,51.79
2023-02-24T23:21:01.574Z,51.17
2023-02-24T23:23:28.416Z,50.90
2023-02-24T23:25:55.352Z,49.78
2023-02-24T23:28:22.240Z,49.43
2023-02-24T23:30:49.159Z,50.68
2023-02-24T23:33:15.946Z,50.36
2023-02-24T23:35:44.045Z,49.91
2023-02-24T23:38:11.671Z,49.39
2023-02-24T23:40:49.705Z,49.28
2023-02-24T23:43:17.629Z,49.47
2023-02-24T23:45:45.541Z,49.12
2023-02-24T23:48:14.138Z,48.68
2023-02-24T23:50:42.660Z,49.08
2023-02-24T23:53:10.076Z,49.59
2023-02-24T23:55:39.197Z,48.62
2023-02-24T23:58:05.889Z,48.84
